sensor_id;sensor_type;location;lat;lon;timestamp;temperature;humidity
14049;DHT22;7099;53.922;10.728;2023-04-02T00:00:17;3.00;65.10
14049;DHT22;7099;53.922;10.728;2023-04-02T00:04:23;3.00;65.20
14049;DHT22;7099;53.922;10.728;2023-04-02T00:08:38;3.00;65.20
14049;DHT22;7099;53.922;10.728;2023-04-02T00:17:16;3.00;65.00
14049;DHT22;7099;53.922;10.728;2023-04-02T00:21:25;3.00;65.10
14049;DHT22;7099;53.922;10.728;2023-04-02T00:25:37;3.00;65.10
14049;DHT22;7099;53.922;10.728;2023-04-02T00:29:54;3.10;65.20
14049;DHT22;7099;53.922;10.728;2023-04-02T00:34:02;3.10;65.20
14049;DHT22;7099;53.922;10.728;2023-04-02T00:38:21;3.10;65.30
14049;DHT22;7099;53.922;10.728;2023-04-02T00:42:30;3.10;65.20
14049;DHT22;7099;53.922;10.728;2023-04-02T00:46:40;3.10;65.40
14049;DHT22;7099;53.922;10.728;2023-04-02T00:50:51;3.10;65.30
14049;DHT22;7099;53.922;10.728;2023-04-02T01:03:40;3.10;65.30
14049;DHT22;7099;53.922;10.728;2023-04-02T01:07:58;3.10;65.40
14049;DHT22;7099;53.922;10.728;2023-04-02T01:12:22;3.10;65.50
14049;DHT22;7099;53.922;10.728;2023-04-02T01:16:49;3.10;65.50
14049;DHT22;7099;53.922;10.728;2023-04-02T01:25:24;3.10;65.40
14049;DHT22;7099;53.922;10.728;2023-04-02T01:29:33;3.10;65.40
14049;DHT22;7099;53.922;10.728;2023-04-02T01:33:41;3.10;65.10
14049;DHT22;7099;53.922;10.728;2023-04-02T01:37:49;3.10;65.20
14049;DHT22;7099;53.922;10.728;2023-04-02T01:46:24;3.20;65.30
14049;DHT22;7099;53.922;10.728;2023-04-02T01:50:37;3.20;65.20
14049;DHT22;7099;53.922;10.728;2023-04-02T01:54:44;3.20;65.40
14049;DHT22;7099;53.922;10.728;2023-04-02T01:58:51;3.30;65.40
14049;DHT22;7099;53.922;10.728;2023-04-02T02:02:58;3.30;65.50
14049;DHT22;7099;53.922;10.728;2023-04-02T02:07:05;3.30;65.20
14049;DHT22;7099;53.922;10.728;2023-04-02T02:11:24;3.30;64.90
14049;DHT22;7099;53.922;10.728;2023-04-02T02:15:32;3.30;65.00
14049;DHT22;7099;53.922;10.728;2023-04-02T02:19:44;3.30;64.70
14049;DHT22;7099;53.922;10.728;2023-04-02T02:23:56;3.30;64.10
14049;DHT22;7099;53.922;10.728;2023-04-02T02:28:05;3.40;64.40
14049;DHT22;7099;53.922;10.728;2023-04-02T02:32:18;3.40;64.70
14049;DHT22;7099;53.922;10.728;2023-04-02T02:36:26;3.40;64.40
14049;DHT22;7099;53.922;10.728;2023-04-02T02:40:38;3.50;63.80
14049;DHT22;7099;53.922;10.728;2023-04-02T02:44:45;3.50;64.20
14049;DHT22;7099;53.922;10.728;2023-04-02T02:48:52;3.50;63.80
14049;DHT22;7099;53.922;10.728;2023-04-02T02:53:02;3.60;63.30
14049;DHT22;7099;53.922;10.728;2023-04-02T02:57:17;3.50;62.20
14049;DHT22;7099;53.922;10.728;2023-04-02T03:01:28;3.50;62.30
14049;DHT22;7099;53.922;10.728;2023-04-02T03:05:34;3.50;62.50
14049;DHT22;7099;53.922;10.728;2023-04-02T03:14:28;3.60;61.40
14049;DHT22;7099;53.922;10.728;2023-04-02T03:18:47;3.70;62.10
14049;DHT22;7099;53.922;10.728;2023-04-02T03:22:59;3.70;62.80
14049;DHT22;7099;53.922;10.728;2023-04-02T03:27:29;3.70;62.90
14049;DHT22;7099;53.922;10.728;2023-04-02T03:31:41;3.80;61.90
14049;DHT22;7099;53.922;10.728;2023-04-02T03:35:57;3.70;61.70
14049;DHT22;7099;53.922;10.728;2023-04-02T03:40:17;3.70;62.20
14049;DHT22;7099;53.922;10.728;2023-04-02T03:48:40;3.80;62.50
14049;DHT22;7099;53.922;10.728;2023-04-02T03:52:49;3.80;62.70
14049;DHT22;7099;53.922;10.728;2023-04-02T03:56:55;3.90;62.50
14049;DHT22;7099;53.922;10.728;2023-04-02T04:01:23;3.90;62.60
14049;DHT22;7099;53.922;10.728;2023-04-02T04:05:34;3.90;62.10
14049;DHT22;7099;53.922;10.728;2023-04-02T04:09:44;3.90;62.60
14049;DHT22;7099;53.922;10.728;2023-04-02T04:13:58;4.00;62.50
14049;DHT22;7099;53.922;10.728;2023-04-02T04:18:54;4.10;63.00
14049;DHT22;7099;53.922;10.728;2023-04-02T04:23:17;4.10;63.10
14049;DHT22;7099;53.922;10.728;2023-04-02T04:28:35;4.10;62.20
14049;DHT22;7099;53.922;10.728;2023-04-02T04:32:36;4.10;62.20
14049;DHT22;7099;53.922;10.728;2023-04-02T04:36:51;4.10;62.20
14049;DHT22;7099;53.922;10.728;2023-04-02T04:41:03;4.10;62.60
14049;DHT22;7099;53.922;10.728;2023-04-02T04:49:46;4.20;62.40
14049;DHT22;7099;53.922;10.728;2023-04-02T04:53:57;4.10;61.10
14049;DHT22;7099;53.922;10.728;2023-04-02T04:58:25;4.10;61.10
14049;DHT22;7099;53.922;10.728;2023-04-02T05:02:44;4.10;60.50
14049;DHT22;7099;53.922;10.728;2023-04-02T05:06:59;4.10;60.70
14049;DHT22;7099;53.922;10.728;2023-04-02T05:16:23;4.20;60.80
14049;DHT22;7099;53.922;10.728;2023-04-02T05:25:19;4.10;60.40
14049;DHT22;7099;53.922;10.728;2023-04-02T05:29:30;4.10;60.80
14049;DHT22;7099;53.922;10.728;2023-04-02T05:33:38;4.10;61.00
14049;DHT22;7099;53.922;10.728;2023-04-02T05:37:49;4.20;61.20
14049;DHT22;7099;53.922;10.728;2023-04-02T05:46:40;4.30;60.90
14049;DHT22;7099;53.922;10.728;2023-04-02T05:50:53;4.20;60.10
14049;DHT22;7099;53.922;10.728;2023-04-02T05:55:27;4.20;60.90
14049;DHT22;7099;53.922;10.728;2023-04-02T05:59:50;4.30;60.40
14049;DHT22;7099;53.922;10.728;2023-04-02T06:04:06;4.40;61.40
14049;DHT22;7099;53.922;10.728;2023-04-02T06:08:37;4.40;61.70
14049;DHT22;7099;53.922;10.728;2023-04-02T06:12:57;4.50;62.20
14049;DHT22;7099;53.922;10.728;2023-04-02T06:17:12;4.50;62.00
14049;DHT22;7099;53.922;10.728;2023-04-02T06:21:19;4.50;62.40
14049;DHT22;7099;53.922;10.728;2023-04-02T06:25:30;4.60;62.80
14049;DHT22;7099;53.922;10.728;2023-04-02T06:29:41;4.60;61.80
14049;DHT22;7099;53.922;10.728;2023-04-02T06:33:48;4.70;61.10
14049;DHT22;7099;53.922;10.728;2023-04-02T06:37:59;4.60;60.40
14049;DHT22;7099;53.922;10.728;2023-04-02T06:42:10;4.70;60.50
14049;DHT22;7099;53.922;10.728;2023-04-02T06:46:37;4.80;60.60
14049;DHT22;7099;53.922;10.728;2023-04-02T06:51:04;4.90;60.70
14049;DHT22;7099;53.922;10.728;2023-04-02T06:55:33;5.10;60.00
14049;DHT22;7099;53.922;10.728;2023-04-02T07:00:02;5.40;59.80
14049;DHT22;7099;53.922;10.728;2023-04-02T07:04:09;5.40;60.20
14049;DHT22;7099;53.922;10.728;2023-04-02T07:08:14;5.40;59.60
14049;DHT22;7099;53.922;10.728;2023-04-02T07:12:24;5.50;60.50
14049;DHT22;7099;53.922;10.728;2023-04-02T07:16:31;5.60;60.30
14049;DHT22;7099;53.922;10.728;2023-04-02T07:20:38;5.70;60.50
14049;DHT22;7099;53.922;10.728;2023-04-02T07:24:45;5.80;59.60
14049;DHT22;7099;53.922;10.728;2023-04-02T07:28:51;5.70;59.20
14049;DHT22;7099;53.922;10.728;2023-04-02T07:32:58;5.70;59.60
14049;DHT22;7099;53.922;10.728;2023-04-02T07:37:03;5.90;59.60
14049;DHT22;7099;53.922;10.728;2023-04-02T07:41:10;6.20;59.30
14049;DHT22;7099;53.922;10.728;2023-04-02T07:45:16;6.20;58.20
14049;DHT22;7099;53.922;10.728;2023-04-02T07:49:21;6.30;59.00
14049;DHT22;7099;53.922;10.728;2023-04-02T07:53:33;6.20;57.70
14049;DHT22;7099;53.922;10.728;2023-04-02T07:57:53;6.00;57.80
14049;DHT22;7099;53.922;10.728;2023-04-02T08:01:59;6.00;57.90
14049;DHT22;7099;53.922;10.728;2023-04-02T08:06:06;6.10;58.20
14049;DHT22;7099;53.922;10.728;2023-04-02T08:10:12;6.20;57.50
14049;DHT22;7099;53.922;10.728;2023-04-02T08:14:17;6.30;56.70
14049;DHT22;7099;53.922;10.728;2023-04-02T08:18:23;6.40;57.20
14049;DHT22;7099;53.922;10.728;2023-04-02T08:22:29;6.60;57.50
14049;DHT22;7099;53.922;10.728;2023-04-02T08:26:36;6.80;57.60
14049;DHT22;7099;53.922;10.728;2023-04-02T08:30:42;6.90;57.30
14049;DHT22;7099;53.922;10.728;2023-04-02T08:34:48;6.90;57.20
14049;DHT22;7099;53.922;10.728;2023-04-02T08:38:54;6.90;57.30
14049;DHT22;7099;53.922;10.728;2023-04-02T08:47:21;7.10;56.90
14049;DHT22;7099;53.922;10.728;2023-04-02T08:51:36;7.20;57.10
14049;DHT22;7099;53.922;10.728;2023-04-02T08:56:12;7.10;55.70
14049;DHT22;7099;53.922;10.728;2023-04-02T09:00:43;7.20;55.00
14049;DHT22;7099;53.922;10.728;2023-04-02T09:04:50;7.20;54.90
14049;DHT22;7099;53.922;10.728;2023-04-02T09:08:56;7.10;56.70
14049;DHT22;7099;53.922;10.728;2023-04-02T09:13:08;7.30;56.80
14049;DHT22;7099;53.922;10.728;2023-04-02T09:17:23;7.40;55.10
14049;DHT22;7099;53.922;10.728;2023-04-02T09:25:43;7.10;55.60
14049;DHT22;7099;53.922;10.728;2023-04-02T09:30:39;7.20;55.50
14049;DHT22;7099;53.922;10.728;2023-04-02T09:35:28;7.50;56.10
14049;DHT22;7099;53.922;10.728;2023-04-02T09:39:37;7.40;54.50
14049;DHT22;7099;53.922;10.728;2023-04-02T09:43:43;7.30;55.60
14049;DHT22;7099;53.922;10.728;2023-04-02T09:47:50;7.40;56.20
14049;DHT22;7099;53.922;10.728;2023-04-02T09:52:16;7.60;55.50
14049;DHT22;7099;53.922;10.728;2023-04-02T09:56:33;7.80;53.80
14049;DHT22;7099;53.922;10.728;2023-04-02T10:00:48;7.80;55.30
14049;DHT22;7099;53.922;10.728;2023-04-02T10:04:55;7.90;54.50
14049;DHT22;7099;53.922;10.728;2023-04-02T10:09:27;7.90;53.40
14049;DHT22;7099;53.922;10.728;2023-04-02T10:22:46;8.20;55.70
14049;DHT22;7099;53.922;10.728;2023-04-02T10:32:02;8.00;53.80
14049;DHT22;7099;53.922;10.728;2023-04-02T10:49:49;8.30;53.60
14049;DHT22;7099;53.922;10.728;2023-04-02T10:59:04;8.50;54.30
14049;DHT22;7099;53.922;10.728;2023-04-02T11:03:48;8.50;54.00
14049;DHT22;7099;53.922;10.728;2023-04-02T11:08:08;8.50;52.10
14049;DHT22;7099;53.922;10.728;2023-04-02T11:16:48;8.90;54.10
14049;DHT22;7099;53.922;10.728;2023-04-02T11:21:01;9.00;53.80
14049;DHT22;7099;53.922;10.728;2023-04-02T11:25:25;9.00;54.00
14049;DHT22;7099;53.922;10.728;2023-04-02T11:29:32;9.00;53.50
14049;DHT22;7099;53.922;10.728;2023-04-02T11:33:43;8.90;53.50
14049;DHT22;7099;53.922;10.728;2023-04-02T11:37:55;9.00;53.50
14049;DHT22;7099;53.922;10.728;2023-04-02T11:55:45;8.90;52.20
14049;DHT22;7099;53.922;10.728;2023-04-02T12:00:27;9.00;53.90
14049;DHT22;7099;53.922;10.728;2023-04-02T14:28:54;9.80;52.10
14049;DHT22;7099;53.922;10.728;2023-04-02T14:33:50;9.50;52.70
14049;DHT22;7099;53.922;10.728;2023-04-02T14:38:27;9.60;52.20
14049;DHT22;7099;53.922;10.728;2023-04-02T14:42:52;9.60;53.80
14049;DHT22;7099;53.922;10.728;2023-04-02T14:47:18;10.00;54.10
14049;DHT22;7099;53.922;10.728;2023-04-02T14:51:37;10.30;52.80
14049;DHT22;7099;53.922;10.728;2023-04-02T14:55:48;10.30;51.70
14049;DHT22;7099;53.922;10.728;2023-04-02T15:04:40;10.20;52.20
14049;DHT22;7099;53.922;10.728;2023-04-02T15:09:04;10.40;51.50
14049;DHT22;7099;53.922;10.728;2023-04-02T15:13:21;10.30;50.50
14049;DHT22;7099;53.922;10.728;2023-04-02T15:17:31;10.10;52.00
14049;DHT22;7099;53.922;10.728;2023-04-02T15:31:05;10.00;52.20
14049;DHT22;7099;53.922;10.728;2023-04-02T15:35:41;10.00;51.60
14049;DHT22;7099;53.922;10.728;2023-04-02T15:40:02;10.00;51.00
14049;DHT22;7099;53.922;10.728;2023-04-02T15:44:15;10.00;52.30
14049;DHT22;7099;53.922;10.728;2023-04-02T15:53:26;10.00;50.60
14049;DHT22;7099;53.922;10.728;2023-04-02T15:58:19;9.70;52.20
14049;DHT22;7099;53.922;10.728;2023-04-02T16:02:50;9.80;51.70
14049;DHT22;7099;53.922;10.728;2023-04-02T16:11:28;9.60;52.00
14049;DHT22;7099;53.922;10.728;2023-04-02T16:15:36;9.50;52.40
14049;DHT22;7099;53.922;10.728;2023-04-02T16:19:59;9.50;52.90
14049;DHT22;7099;53.922;10.728;2023-04-02T16:24:29;9.40;52.20
14049;DHT22;7099;53.922;10.728;2023-04-02T16:28:41;9.20;52.90
14049;DHT22;7099;53.922;10.728;2023-04-02T16:33:21;9.20;52.70
14049;DHT22;7099;53.922;10.728;2023-04-02T16:37:55;9.30;52.70
14049;DHT22;7099;53.922;10.728;2023-04-02T17:14:03;7.80;52.60
14049;DHT22;7099;53.922;10.728;2023-04-02T17:18:16;7.60;51.30
14049;DHT22;7099;53.922;10.728;2023-04-02T17:22:24;7.30;52.10
14049;DHT22;7099;53.922;10.728;2023-04-02T17:26:32;7.30;52.80
14049;DHT22;7099;53.922;10.728;2023-04-02T17:30:53;7.10;52.20
14049;DHT22;7099;53.922;10.728;2023-04-02T17:48:44;6.60;53.10
14049;DHT22;7099;53.922;10.728;2023-04-02T17:57:14;6.30;52.80
14049;DHT22;7099;53.922;10.728;2023-04-02T18:11:13;5.90;53.60
14049;DHT22;7099;53.922;10.728;2023-04-02T18:15:50;5.90;54.00
14049;DHT22;7099;53.922;10.728;2023-04-02T18:20:08;5.90;54.50
14049;DHT22;7099;53.922;10.728;2023-04-02T18:33:55;5.70;55.40
14049;DHT22;7099;53.922;10.728;2023-04-02T18:38:28;5.60;55.80
14049;DHT22;7099;53.922;10.728;2023-04-02T18:47:26;5.40;56.50
14049;DHT22;7099;53.922;10.728;2023-04-02T18:51:48;5.30;56.70
14049;DHT22;7099;53.922;10.728;2023-04-02T18:56:03;5.20;56.80
14049;DHT22;7099;53.922;10.728;2023-04-02T19:00:30;5.20;57.00
14049;DHT22;7099;53.922;10.728;2023-04-02T19:04:41;5.20;57.10
14049;DHT22;7099;53.922;10.728;2023-04-02T19:09:09;5.10;57.40
14049;DHT22;7099;53.922;10.728;2023-04-02T19:13:18;5.00;57.60
14049;DHT22;7099;53.922;10.728;2023-04-02T19:26:12;4.80;57.90
14049;DHT22;7099;53.922;10.728;2023-04-02T19:34:55;4.80;57.80
14049;DHT22;7099;53.922;10.728;2023-04-02T19:44:01;4.80;57.90
14049;DHT22;7099;53.922;10.728;2023-04-02T19:48:19;4.70;57.70
14049;DHT22;7099;53.922;10.728;2023-04-02T19:52:27;4.60;58.10
14049;DHT22;7099;53.922;10.728;2023-04-02T19:56:33;4.60;58.20
14049;DHT22;7099;53.922;10.728;2023-04-02T20:00:38;4.60;58.60
14049;DHT22;7099;53.922;10.728;2023-04-02T20:04:44;4.60;58.70
14049;DHT22;7099;53.922;10.728;2023-04-02T20:08:50;4.60;58.80
14049;DHT22;7099;53.922;10.728;2023-04-02T20:12:56;4.50;59.00
14049;DHT22;7099;53.922;10.728;2023-04-02T20:17:01;4.50;59.10
14049;DHT22;7099;53.922;10.728;2023-04-02T20:21:08;4.50;59.40
14049;DHT22;7099;53.922;10.728;2023-04-02T20:25:14;4.40;59.40
14049;DHT22;7099;53.922;10.728;2023-04-02T20:29:20;4.40;59.60
14049;DHT22;7099;53.922;10.728;2023-04-02T20:33:27;4.40;59.70
14049;DHT22;7099;53.922;10.728;2023-04-02T20:37:32;4.40;59.80
14049;DHT22;7099;53.922;10.728;2023-04-02T20:41:38;4.30;59.80
14049;DHT22;7099;53.922;10.728;2023-04-02T20:45:52;4.30;60.00
14049;DHT22;7099;53.922;10.728;2023-04-02T20:49:59;4.20;60.10
14049;DHT22;7099;53.922;10.728;2023-04-02T20:54:05;4.30;60.10
14049;DHT22;7099;53.922;10.728;2023-04-02T20:58:14;4.10;60.20
14049;DHT22;7099;53.922;10.728;2023-04-02T21:02:21;4.00;60.50
14049;DHT22;7099;53.922;10.728;2023-04-02T21:06:29;3.90;60.60
14049;DHT22;7099;53.922;10.728;2023-04-02T21:10:36;3.90;60.90
14049;DHT22;7099;53.922;10.728;2023-04-02T21:14:42;3.80;61.00
14049;DHT22;7099;53.922;10.728;2023-04-02T21:18:51;3.70;61.20
14049;DHT22;7099;53.922;10.728;2023-04-02T21:22:57;3.60;61.40
14049;DHT22;7099;53.922;10.728;2023-04-02T21:27:03;3.50;61.50
14049;DHT22;7099;53.922;10.728;2023-04-02T21:31:12;3.60;61.60
14049;DHT22;7099;53.922;10.728;2023-04-02T21:35:19;3.50;61.50
14049;DHT22;7099;53.922;10.728;2023-04-02T21:39:25;3.40;61.50
14049;DHT22;7099;53.922;10.728;2023-04-02T21:43:31;3.40;61.60
14049;DHT22;7099;53.922;10.728;2023-04-02T21:47:36;3.30;61.60
14049;DHT22;7099;53.922;10.728;2023-04-02T21:51:43;3.30;61.80
14049;DHT22;7099;53.922;10.728;2023-04-02T21:55:49;3.20;62.00
14049;DHT22;7099;53.922;10.728;2023-04-02T22:00:05;3.10;62.10
14049;DHT22;7099;53.922;10.728;2023-04-02T22:04:18;3.00;62.50
14049;DHT22;7099;53.922;10.728;2023-04-02T22:08:25;3.00;62.70
14049;DHT22;7099;53.922;10.728;2023-04-02T22:12:31;2.90;62.80
14049;DHT22;7099;53.922;10.728;2023-04-02T22:16:37;2.80;63.00
14049;DHT22;7099;53.922;10.728;2023-04-02T22:20:43;2.70;63.10
14049;DHT22;7099;53.922;10.728;2023-04-02T22:24:49;2.70;63.10
14049;DHT22;7099;53.922;10.728;2023-04-02T22:28:54;2.60;63.20
14049;DHT22;7099;53.922;10.728;2023-04-02T22:33:00;2.60;63.30
14049;DHT22;7099;53.922;10.728;2023-04-02T22:37:06;2.50;64.00
14049;DHT22;7099;53.922;10.728;2023-04-02T22:41:16;2.50;64.20
14049;DHT22;7099;53.922;10.728;2023-04-02T22:45:24;2.40;63.70
14049;DHT22;7099;53.922;10.728;2023-04-02T22:49:29;2.40;63.80
14049;DHT22;7099;53.922;10.728;2023-04-02T22:53:36;2.30;63.70
14049;DHT22;7099;53.922;10.728;2023-04-02T22:57:43;2.30;64.00
14049;DHT22;7099;53.922;10.728;2023-04-02T23:01:48;2.20;64.20
14049;DHT22;7099;53.922;10.728;2023-04-02T23:06:03;2.20;64.20
14049;DHT22;7099;53.922;10.728;2023-04-02T23:10:11;2.10;64.90
14049;DHT22;7099;53.922;10.728;2023-04-02T23:14:17;2.00;64.80
14049;DHT22;7099;53.922;10.728;2023-04-02T23:18:22;2.00;64.70
14049;DHT22;7099;53.922;10.728;2023-04-02T23:22:28;1.90;64.60
14049;DHT22;7099;53.922;10.728;2023-04-02T23:26:34;1.90;64.70
14049;DHT22;7099;53.922;10.728;2023-04-02T23:30:40;1.80;64.60
14049;DHT22;7099;53.922;10.728;2023-04-02T23:34:47;1.70;64.80
14049;DHT22;7099;53.922;10.728;2023-04-02T23:38:54;1.70;64.80
14049;DHT22;7099;53.922;10.728;2023-04-02T23:43:01;1.70;65.00
14049;DHT22;7099;53.922;10.728;2023-04-02T23:47:07;1.60;64.90
14049;DHT22;7099;53.922;10.728;2023-04-02T23:51:13;1.50;64.70
14049;DHT22;7099;53.922;10.728;2023-04-02T23:55:19;1.40;64.80
14049;DHT22;7099;53.922;10.728;2023-04-02T23:59:25;1.40;65.00
